Time;durP1;ratioP1;P1;durP2;ratioP2;P2;SDS_P1;SDS_P2;PMS_P1;PMS_P2;Temp;Humidity;BMP_temperature;BMP_pressure;BME280_temperature;BME280_humidity;BME280_pressure;Samples;Min_cycle;Max_cycle;Signal;HPM_P1;HPM_P2
2021/11/08 00:01:18;;;;;;;14.65;2.25;;;8.00;99.90;;;;;;5018345;28;20040;-66
2021/11/08 00:03:46;;;;;;;16.27;2.05;;;8.00;99.90;;;;;;5027590;28;20549;-66
2021/11/08 00:06:14;;;;;;;11.35;1.80;;;8.00;99.90;;;;;;5020358;28;20045;-66
2021/11/08 00:08:41;;;;;;;13.43;1.77;;;8.00;99.90;;;;;;5023141;28;20119;-66
2021/11/08 00:11:07;;;;;;;19.25;2.05;;;8.00;99.90;;;;;;4997796;28;20054;-66
2021/11/08 00:13:34;;;;;;;14.45;1.83;;;8.10;99.90;;;;;;5009249;28;20482;-66
2021/11/08 00:21:07;;;;;;;15.70;1.77;;;8.10;99.90;;;;;;5017186;28;20087;-66
2021/11/08 00:23:33;;;;;;;11.98;1.90;;;8.10;99.90;;;;;;5027137;28;20037;-66
2021/11/08 00:25:59;;;;;;;12.95;1.98;;;8.10;99.90;;;;;;5020692;28;20375;-66
2021/11/08 00:28:25;;;;;;;13.85;2.10;;;8.20;99.90;;;;;;5023864;28;20033;-66
2021/11/08 00:30:54;;;;;;;16.77;2.20;;;8.20;99.90;;;;;;4989574;28;20438;-66
2021/11/08 00:33:22;;;;;;;16.15;2.03;;;8.20;99.90;;;;;;5023007;28;20138;-66
2021/11/08 00:35:54;;;;;;;12.73;1.80;;;8.20;99.90;;;;;;5017358;28;20402;-66
2021/11/08 00:38:20;;;;;;;11.25;2.03;;;8.20;99.90;;;;;;5022847;28;20513;-66
2021/11/08 00:40:48;;;;;;;8.85;1.52;;;8.20;99.90;;;;;;5002720;28;20501;-66
2021/11/08 00:43:14;;;;;;;19.55;2.17;;;8.20;99.90;;;;;;5016198;28;20046;-66
2021/11/08 00:45:41;;;;;;;14.38;1.60;;;8.20;99.90;;;;;;5026437;28;20033;-66
2021/11/08 00:48:08;;;;;;;11.35;1.52;;;8.20;99.90;;;;;;5019085;28;20482;-66
2021/11/08 00:50:34;;;;;;;15.88;2.05;;;8.20;99.90;;;;;;5020956;28;20046;-66
2021/11/08 00:53:00;;;;;;;16.55;2.05;;;8.20;99.90;;;;;;4998945;28;20064;-66
2021/11/08 00:55:28;;;;;;;13.60;2.10;;;8.20;99.90;;;;;;5008695;28;20056;-66
2021/11/08 00:57:57;;;;;;;9.85;1.58;;;8.20;99.90;;;;;;5016503;28;20052;-66
2021/11/08 01:00:26;;;;;;;17.25;1.80;;;8.20;99.90;;;;;;5019579;28;20045;-66
2021/11/08 01:02:53;;;;;;;11.32;1.63;;;8.20;99.90;;;;;;5004401;28;20056;-66
2021/11/08 01:05:19;;;;;;;15.13;1.60;;;8.20;99.90;;;;;;5026870;28;20140;-66
2021/11/08 01:07:45;;;;;;;10.48;1.50;;;8.30;99.90;;;;;;5020147;28;20514;-66
2021/11/08 01:10:16;;;;;;;11.05;1.95;;;8.30;99.90;;;;;;5024559;28;20038;-66
2021/11/08 01:12:42;;;;;;;12.25;1.85;;;8.30;99.90;;;;;;5017464;28;20042;-66
2021/11/08 01:15:09;;;;;;;12.77;1.83;;;8.30;99.90;;;;;;5004645;28;20125;-66
2021/11/08 01:17:35;;;;;;;10.32;1.55;;;8.30;99.90;;;;;;5015113;28;20057;-66
2021/11/08 01:20:02;;;;;;;13.93;1.85;;;8.20;99.90;;;;;;5026745;28;20103;-66
2021/11/08 01:22:28;;;;;;;13.00;1.67;;;8.20;99.90;;;;;;5022044;28;20040;-66
2021/11/08 01:24:55;;;;;;;17.58;1.95;;;8.10;99.90;;;;;;5024231;28;20492;-66
2021/11/08 01:27:38;;;;;;;13.88;1.65;;;8.10;99.90;;;;;;5003751;28;20041;-66
2021/11/08 01:30:13;;;;;;;11.10;1.40;;;8.00;99.90;;;;;;5028755;28;20042;-66
2021/11/08 01:32:40;;;;;;;19.23;1.83;;;7.90;99.90;;;;;;5023745;28;20056;-66
2021/11/08 01:35:06;;;;;;;9.13;1.42;;;7.80;99.90;;;;;;5017105;28;20120;-66
2021/11/08 01:37:32;;;;;;;10.77;1.70;;;7.90;99.90;;;;;;5023366;28;20104;-66
2021/11/08 01:39:58;;;;;;;14.05;2.42;;;7.90;99.90;;;;;;5021740;28;20053;-66
2021/11/08 01:42:25;;;;;;;11.85;1.45;;;7.90;99.90;;;;;;5023310;28;20033;-66
2021/11/08 01:44:51;;;;;;;16.45;2.45;;;7.90;99.90;;;;;;5018053;28;20104;-66
2021/11/08 01:47:16;;;;;;;11.23;1.67;;;7.80;99.90;;;;;;5026224;28;20129;-66
2021/11/08 01:49:42;;;;;;;16.08;1.75;;;7.90;99.90;;;;;;5004067;28;20052;-66
2021/11/08 01:52:12;;;;;;;12.27;1.67;;;7.90;99.90;;;;;;5001965;28;20129;-66
2021/11/08 01:54:38;;;;;;;8.95;1.38;;;7.90;99.90;;;;;;5015993;28;20144;-66
2021/11/08 01:57:07;;;;;;;12.93;2.13;;;7.90;99.90;;;;;;4997665;28;20073;-66
2021/11/08 01:59:33;;;;;;;12.13;1.83;;;7.80;99.90;;;;;;5021380;28;20030;-66
2021/11/08 02:02:00;;;;;;;12.23;1.80;;;7.80;99.90;;;;;;5007597;28;20439;-66
2021/11/08 02:04:26;;;;;;;9.15;1.45;;;7.70;99.90;;;;;;5018680;28;20116;-66
2021/11/08 02:06:53;;;;;;;13.05;1.52;;;7.70;99.90;;;;;;5004684;28;20091;-66
2021/11/08 02:09:19;;;;;;;10.15;1.45;;;7.60;99.90;;;;;;5003256;28;20042;-66
2021/11/08 02:11:45;;;;;;;13.48;1.42;;;7.50;99.90;;;;;;5019865;28;20328;-66
2021/11/08 02:14:11;;;;;;;8.80;0.93;;;7.40;99.90;;;;;;5027715;28;20093;-66
2021/11/08 02:16:37;;;;;;;8.20;1.45;;;7.30;99.90;;;;;;5005567;28;20120;-66
2021/11/08 02:19:07;;;;;;;11.65;1.25;;;7.20;99.90;;;;;;5023713;28;20171;-66
2021/11/08 02:21:34;;;;;;;10.88;1.48;;;7.20;99.90;;;;;;5003668;28;20068;-66
2021/11/08 02:24:03;;;;;;;13.27;1.48;;;7.10;99.90;;;;;;5026766;28;20034;-66
2021/11/08 02:26:29;;;;;;;11.85;1.55;;;7.00;99.90;;;;;;5024286;28;20073;-66
2021/11/08 02:28:55;;;;;;;10.63;1.25;;;6.90;99.90;;;;;;5021573;28;20050;-66
2021/11/08 02:31:22;;;;;;;14.85;1.98;;;6.90;99.90;;;;;;5018905;28;20034;-66
2021/11/08 02:33:51;;;;;;;12.13;1.27;;;6.80;99.90;;;;;;5028946;28;20041;-66
2021/11/08 02:36:18;;;;;;;8.65;1.50;;;6.70;99.90;;;;;;5022729;28;20080;-66
2021/11/08 02:38:49;;;;;;;16.05;1.35;;;6.60;99.90;;;;;;5027626;28;20046;-66
2021/11/08 02:41:17;;;;;;;18.25;1.80;;;6.60;99.90;;;;;;5021663;28;20041;-66
2021/11/08 02:43:44;;;;;;;17.13;2.00;;;6.50;99.90;;;;;;5008864;28;20095;-66
2021/11/08 02:46:24;;;;;;;12.50;2.10;;;6.50;99.90;;;;;;5021340;28;20037;-66
2021/11/08 02:48:51;;;;;;;19.02;2.05;;;6.50;99.90;;;;;;5009523;28;20118;-66
2021/11/08 02:51:22;;;;;;;11.55;1.92;;;6.40;99.90;;;;;;5006821;28;20116;-66
2021/11/08 02:53:51;;;;;;;11.63;1.73;;;6.40;99.90;;;;;;5009369;28;20371;-66
2021/11/08 02:56:18;;;;;;;11.82;1.80;;;6.30;99.90;;;;;;5020834;28;20049;-66
2021/11/08 02:58:46;;;;;;;17.05;2.17;;;6.30;99.90;;;;;;5007220;28;20104;-66
2021/11/08 03:01:15;;;;;;;13.10;1.80;;;6.20;99.90;;;;;;5004790;28;20077;-66
2021/11/08 03:03:44;;;;;;;15.20;1.60;;;6.20;99.90;;;;;;5029084;28;20042;-66
2021/11/08 03:09:24;;;;;;;15.85;2.13;;;6.10;99.90;;;;;;4950310;28;20046;-66
2021/11/08 03:11:50;;;;;;;18.52;2.90;;;6.10;99.90;;;;;;4997926;28;20049;-66
2021/11/08 03:14:19;;;;;;;16.63;1.67;;;6.10;99.90;;;;;;5022869;28;20108;-66
2021/11/08 03:17:21;;;;;;;18.75;1.55;;;6.10;99.90;;;;;;5023644;28;20519;-66
2021/11/08 03:19:39;;;;;;;19.98;2.42;;;6.10;99.90;;;;;;5005512;28;20041;-66
2021/11/08 03:22:12;;;;;;;14.18;2.33;;;6.10;99.90;;;;;;5020175;28;20046;-66
2021/11/08 03:24:44;;;;;;;15.00;1.88;;;6.00;99.90;;;;;;5008587;28;20092;-66
2021/11/08 03:30:28;;;;;;;17.02;2.08;;;6.00;99.90;;;;;;4988045;28;20046;-66
2021/11/08 03:32:56;;;;;;;15.95;2.22;;;5.90;99.90;;;;;;5001263;28;20101;-66
2021/11/08 03:35:25;;;;;;;14.80;2.33;;;5.90;99.90;;;;;;5008689;28;20034;-66
2021/11/08 03:37:53;;;;;;;13.27;1.70;;;5.90;99.90;;;;;;4987207;28;20053;-66
2021/11/08 03:40:25;;;;;;;12.38;1.70;;;5.80;99.90;;;;;;5008044;28;20045;-66
2021/11/08 03:42:55;;;;;;;22.25;2.58;;;5.80;99.90;;;;;;5018375;28;20068;-66
2021/11/08 03:45:26;;;;;;;14.18;1.67;;;5.80;99.90;;;;;;5029102;28;20474;-66
2021/11/08 03:47:54;;;;;;;9.93;1.70;;;5.70;99.90;;;;;;5023053;28;20046;-66
2021/11/08 03:50:21;;;;;;;16.38;1.83;;;5.70;99.90;;;;;;5018845;28;20072;-66
2021/11/08 03:52:49;;;;;;;16.33;1.73;;;5.70;99.90;;;;;;5023536;28;20038;-66
2021/11/08 03:55:16;;;;;;;11.63;1.67;;;5.70;99.90;;;;;;5019918;28;20103;-66
2021/11/08 03:57:42;;;;;;;21.50;2.45;;;5.80;99.90;;;;;;5025475;28;20053;-65
2021/11/08 04:00:12;;;;;;;15.90;2.08;;;5.80;99.90;;;;;;5020503;28;20052;-66
2021/11/08 04:02:39;;;;;;;11.85;1.63;;;5.80;99.90;;;;;;4987395;28;20116;-67
2021/11/08 04:05:06;;;;;;;17.85;2.30;;;5.90;99.90;;;;;;5018859;28;20129;-67
2021/11/08 04:07:33;;;;;;;15.77;1.90;;;5.90;99.90;;;;;;5006829;28;20092;-67
2021/11/08 04:09:59;;;;;;;12.60;2.03;;;5.90;99.90;;;;;;5022148;28;20367;-67
2021/11/08 04:12:27;;;;;;;20.95;2.60;;;6.00;99.90;;;;;;5026992;28;20041;-67
2021/11/08 04:14:54;;;;;;;18.13;1.73;;;6.10;99.90;;;;;;5021293;28;20037;-66
2021/11/08 04:17:22;;;;;;;16.08;1.98;;;6.10;99.90;;;;;;5023025;28;20033;-66
2021/11/08 04:19:47;;;;;;;11.80;1.77;;;6.20;99.90;;;;;;4998807;28;20073;-67
2021/11/08 04:22:14;;;;;;;14.40;1.92;;;6.20;99.90;;;;;;5021868;28;20512;-67
2021/11/08 04:24:42;;;;;;;15.90;2.10;;;6.20;99.90;;;;;;5002417;28;20779;-67
2021/11/08 04:27:09;;;;;;;15.48;1.88;;;6.30;99.90;;;;;;5007226;28;20053;-67
2021/11/08 04:29:35;;;;;;;11.20;1.42;;;6.30;99.90;;;;;;5006905;28;20072;-67
2021/11/08 04:32:01;;;;;;;14.02;1.58;;;6.30;99.90;;;;;;5022020;28;20117;-66
2021/11/08 04:34:30;;;;;;;14.93;2.30;;;6.40;99.90;;;;;;5026786;28;20127;-66
2021/11/08 04:42:53;;;;;;;8.88;1.52;;;6.60;99.90;;;;;;5003899;28;20292;-67
2021/11/08 05:28:42;;;;;;;17.17;2.22;;;6.70;99.90;;;;;;4991650;28;20042;-66
2021/11/08 05:30:34;;;;;;;14.85;2.08;;;6.60;99.90;;;;;;5007370;28;20038;-67
2021/11/08 05:33:01;;;;;;;9.20;1.60;;;6.60;99.90;;;;;;5013910;28;20041;-66
2021/11/08 05:35:27;;;;;;;15.35;1.55;;;6.60;99.90;;;;;;5023702;28;20061;-66
2021/11/08 05:37:53;;;;;;;15.20;1.30;;;6.60;99.90;;;;;;5016867;28;20053;-66
2021/11/08 05:40:31;;;;;;;17.30;1.70;;;6.70;99.90;;;;;;5016945;28;20046;-66
2021/11/08 05:43:02;;;;;;;16.50;2.25;;;6.80;99.90;;;;;;5018162;28;20386;-66
2021/11/08 05:45:32;;;;;;;19.10;1.60;;;6.90;99.90;;;;;;5024273;28;20033;-66
2021/11/08 05:47:58;;;;;;;14.10;1.83;;;6.90;99.90;;;;;;5021412;28;20416;-67
2021/11/08 05:50:24;;;;;;;11.10;1.60;;;6.90;99.90;;;;;;5023885;28;20141;-67
2021/11/08 05:52:52;;;;;;;16.42;1.60;;;7.10;99.90;;;;;;5026192;28;20076;-67
2021/11/08 05:55:19;;;;;;;17.10;2.05;;;7.10;99.90;;;;;;5007742;28;20054;-67
2021/11/08 05:57:59;;;;;;;13.45;1.73;;;7.10;99.90;;;;;;5026304;28;20037;-67
2021/11/08 06:01:43;;;;;;;13.18;1.60;;;7.10;99.90;;;;;;5028489;28;20103;-67
2021/11/08 06:49:52;;;;;;;11.80;1.90;;;6.90;99.90;;;;;;5025871;28;20041;-67
2021/11/08 06:52:19;;;;;;;12.57;2.25;;;6.90;99.90;;;;;;5013729;28;20659;-67
2021/11/08 06:54:48;;;;;;;11.82;2.05;;;6.90;99.90;;;;;;5005560;28;20044;-67
2021/11/08 06:57:17;;;;;;;12.05;2.15;;;7.00;99.90;;;;;;4999018;28;20053;-67
2021/11/08 06:59:46;;;;;;;18.95;2.88;;;6.90;99.90;;;;;;5007157;28;20401;-67
2021/11/08 07:02:13;;;;;;;13.10;2.22;;;7.00;99.90;;;;;;5018094;28;20033;-67
2021/11/08 07:04:39;;;;;;;15.00;2.30;;;7.00;99.90;;;;;;5021924;28;20041;-67
2021/11/08 07:07:06;;;;;;;15.50;2.25;;;6.90;99.90;;;;;;5000012;28;20084;-67
2021/11/08 07:09:33;;;;;;;14.23;2.45;;;7.00;99.90;;;;;;5026727;28;20042;-67
2021/11/08 07:12:00;;;;;;;15.27;2.63;;;7.00;99.90;;;;;;5016261;28;20099;-67
2021/11/08 07:14:26;;;;;;;10.68;2.33;;;7.00;99.90;;;;;;5026310;28;20038;-67
2021/11/08 07:16:52;;;;;;;7.60;1.90;;;7.00;99.90;;;;;;5021405;28;20450;-67
2021/11/08 07:19:18;;;;;;;14.27;2.60;;;7.00;99.90;;;;;;5006349;28;20047;-67
2021/11/08 07:21:44;;;;;;;16.80;2.55;;;7.00;99.90;;;;;;5022560;28;20033;-67
2021/11/08 07:24:10;;;;;;;16.25;2.47;;;7.00;99.90;;;;;;5007667;28;20485;-67
2021/11/08 07:26:37;;;;;;;16.45;2.80;;;6.90;99.90;;;;;;5011002;28;20402;-67
2021/11/08 07:29:04;;;;;;;8.60;2.10;;;7.00;99.90;;;;;;5028443;28;20036;-67
2021/11/08 07:31:29;;;;;;;12.30;2.28;;;7.00;99.90;;;;;;5022567;28;20041;-67
2021/11/08 07:33:55;;;;;;;13.10;2.15;;;7.10;99.90;;;;;;5019719;28;20042;-67
2021/11/08 07:36:21;;;;;;;15.00;2.72;;;7.10;99.90;;;;;;5012422;28;20053;-67
2021/11/08 07:38:47;;;;;;;17.20;2.42;;;7.10;99.90;;;;;;5003706;28;20090;-67
2021/11/08 07:41:12;;;;;;;16.00;3.22;;;7.20;99.90;;;;;;5024268;28;20038;-67
2021/11/08 07:43:39;;;;;;;15.88;3.22;;;7.30;99.90;;;;;;5018654;28;20116;-67
2021/11/08 07:46:05;;;;;;;15.57;2.50;;;7.30;99.90;;;;;;5020975;28;20046;-67
2021/11/08 07:48:32;;;;;;;14.10;2.28;;;7.50;99.90;;;;;;5019194;28;20053;-67
2021/11/08 07:50:57;;;;;;;11.43;2.40;;;7.60;99.90;;;;;;5005374;28;20042;-67
2021/11/08 07:53:24;;;;;;;13.55;2.40;;;7.70;99.90;;;;;;5014128;28;20558;-66
2021/11/08 07:55:50;;;;;;;17.58;2.97;;;8.00;99.90;;;;;;5027283;28;20124;-66
2021/11/08 07:58:16;;;;;;;15.07;2.45;;;8.30;99.90;;;;;;4999552;28;20037;-67
2021/11/08 08:00:42;;;;;;;13.80;2.28;;;8.60;99.90;;;;;;5020317;28;20118;-67
2021/11/08 08:03:10;;;;;;;17.70;2.10;;;8.60;99.90;;;;;;5021400;28;20250;-67
2021/11/08 08:05:36;;;;;;;17.85;2.28;;;8.70;99.90;;;;;;5023435;28;20238;-67
2021/11/08 08:08:02;;;;;;;14.82;2.53;;;8.70;99.90;;;;;;5022012;28;20167;-67
2021/11/08 08:10:28;;;;;;;12.45;2.35;;;8.60;99.90;;;;;;5026146;28;20282;-67
2021/11/08 08:12:54;;;;;;;12.13;1.98;;;8.60;99.90;;;;;;5025572;28;20052;-67
2021/11/08 08:15:20;;;;;;;18.45;2.20;;;8.60;99.90;;;;;;5023514;28;20496;-67
2021/11/08 08:17:46;;;;;;;11.57;2.00;;;8.60;99.90;;;;;;5023172;28;20060;-67
2021/11/08 08:20:16;;;;;;;12.10;2.83;;;8.60;99.90;;;;;;5020922;28;20495;-67
2021/11/08 08:22:42;;;;;;;15.75;2.35;;;8.60;99.90;;;;;;5027159;28;20026;-67
2021/11/08 08:25:08;;;;;;;14.57;1.77;;;8.60;99.90;;;;;;5018798;28;20401;-67
2021/11/08 08:27:34;;;;;;;9.68;1.80;;;8.60;99.90;;;;;;5021915;28;20038;-67
2021/11/08 08:30:00;;;;;;;13.75;1.85;;;8.70;99.90;;;;;;5020771;28;20045;-67
2021/11/08 08:32:25;;;;;;;10.82;2.08;;;8.80;99.90;;;;;;5022556;28;20041;-67
2021/11/08 08:34:51;;;;;;;14.75;2.00;;;8.80;99.90;;;;;;5021084;28;20489;-67
2021/11/08 08:37:18;;;;;;;14.07;2.45;;;8.80;99.90;;;;;;5024198;28;20207;-67
2021/11/08 08:39:44;;;;;;;11.35;2.08;;;8.90;99.90;;;;;;5000396;28;20448;-67
2021/11/08 08:42:10;;;;;;;17.30;2.63;;;9.00;99.90;;;;;;5020269;28;20040;-67
2021/11/08 08:44:36;;;;;;;13.80;1.90;;;9.10;99.90;;;;;;5002410;28;20567;-67
2021/11/08 08:47:02;;;;;;;14.25;2.05;;;9.20;99.90;;;;;;5027133;28;20116;-67
2021/11/08 08:49:27;;;;;;;16.33;2.17;;;9.40;99.90;;;;;;5018249;28;20042;-67
2021/11/08 08:51:54;;;;;;;15.57;2.25;;;9.60;99.90;;;;;;5017398;28;20509;-67
2021/11/08 08:54:20;;;;;;;13.40;2.50;;;9.70;99.90;;;;;;5019876;28;20049;-67
2021/11/08 08:56:47;;;;;;;11.52;1.98;;;9.80;99.90;;;;;;5017055;28;20037;-67
2021/11/08 08:59:13;;;;;;;16.48;2.00;;;9.80;99.90;;;;;;5025926;28;20343;-67
2021/11/08 09:01:39;;;;;;;12.18;1.42;;;9.80;99.90;;;;;;5020731;28;20037;-67
2021/11/08 09:04:05;;;;;;;18.20;2.20;;;9.80;99.90;;;;;;5020311;28;20116;-67
2021/11/08 09:06:31;;;;;;;12.85;2.08;;;9.80;99.90;;;;;;5016031;28;20103;-68
2021/11/08 09:08:57;;;;;;;13.25;2.28;;;9.80;99.90;;;;;;5024788;28;20041;-67
2021/11/08 09:11:24;;;;;;;13.13;1.80;;;9.90;99.90;;;;;;4993032;28;20497;-67
2021/11/08 09:13:50;;;;;;;15.13;1.85;;;9.90;99.90;;;;;;5010362;28;20057;-67
2021/11/08 09:16:16;;;;;;;12.02;2.22;;;9.90;99.90;;;;;;5004688;28;20040;-67
2021/11/08 09:18:48;;;;;;;13.05;2.10;;;9.80;99.90;;;;;;4999907;28;20042;-67
2021/11/08 09:21:16;;;;;;;13.88;2.42;;;10.00;99.90;;;;;;5015846;28;20041;-67
2021/11/08 09:23:42;;;;;;;14.43;1.98;;;10.10;99.90;;;;;;5007996;28;20072;-67
2021/11/08 09:26:09;;;;;;;7.78;1.70;;;10.20;99.90;;;;;;5009763;28;20045;-67
2021/11/08 09:28:36;;;;;;;11.77;1.83;;;10.40;99.90;;;;;;5007881;28;20068;-67
2021/11/08 09:31:03;;;;;;;14.20;1.85;;;10.50;99.90;;;;;;5031144;28;20025;-67
2021/11/08 09:33:29;;;;;;;9.05;1.67;;;10.50;99.90;;;;;;5019920;28;20054;-68
2021/11/08 09:36:02;;;;;;;9.73;1.45;;;10.50;99.90;;;;;;5009995;28;20130;-67
2021/11/08 09:38:28;;;;;;;18.08;2.42;;;10.60;99.90;;;;;;5023176;28;20087;-67
2021/11/08 09:40:54;;;;;;;10.45;1.40;;;10.50;99.90;;;;;;5011566;28;20061;-67
2021/11/08 09:43:23;;;;;;;12.90;1.90;;;10.50;99.90;;;;;;5022374;28;20038;-67
2021/11/08 09:45:50;;;;;;;11.82;1.83;;;10.60;99.90;;;;;;5006393;28;20041;-68
2021/11/08 09:48:21;;;;;;;10.73;1.40;;;10.70;99.90;;;;;;5019968;28;20044;-67
2021/11/08 09:50:48;;;;;;;13.57;1.92;;;10.80;99.90;;;;;;5009910;28;20056;-67
2021/11/08 09:53:16;;;;;;;12.40;2.58;;;10.90;99.90;;;;;;5023610;28;20049;-67
2021/11/08 09:55:44;;;;;;;8.93;1.33;;;10.90;99.90;;;;;;5025447;28;20037;-67
2021/11/08 09:58:10;;;;;;;9.48;1.52;;;11.00;99.90;;;;;;5015809;28;20095;-67
2021/11/08 10:00:36;;;;;;;10.18;1.63;;;10.90;99.90;;;;;;5012717;28;20056;-67
2021/11/08 10:03:03;;;;;;;11.77;1.45;;;11.00;99.90;;;;;;5002170;28;20033;-67
2021/11/08 10:05:34;;;;;;;10.75;2.25;;;10.90;99.90;;;;;;5007145;28;20536;-67
2021/11/08 10:08:00;;;;;;;12.20;1.70;;;10.90;99.90;;;;;;5021615;28;20037;-67
2021/11/08 10:10:29;;;;;;;10.80;1.63;;;10.90;99.90;;;;;;5022517;28;20510;-67
2021/11/08 10:13:13;;;;;;;14.32;1.70;;;10.80;99.90;;;;;;5022373;28;20132;-67
2021/11/08 10:15:45;;;;;;;9.40;1.85;;;10.80;99.90;;;;;;5030271;28;20037;-68
2021/11/08 10:18:12;;;;;;;12.88;1.52;;;10.80;99.90;;;;;;5018417;28;20103;-67
2021/11/08 10:20:41;;;;;;;14.63;1.67;;;10.80;99.90;;;;;;5021516;28;20149;-67
2021/11/08 10:23:09;;;;;;;10.10;1.63;;;10.80;99.90;;;;;;5018689;28;20037;-67
2021/11/08 10:25:37;;;;;;;10.70;1.88;;;10.80;99.90;;;;;;5013444;28;20107;-67
2021/11/08 10:28:18;;;;;;;11.98;1.40;;;10.80;99.90;;;;;;5025705;28;20117;-67
2021/11/08 10:30:53;;;;;;;10.70;2.03;;;10.70;99.90;;;;;;5005361;28;20424;-67
2021/11/08 10:33:30;;;;;;;10.18;1.67;;;10.80;99.90;;;;;;5025354;28;20359;-67
2021/11/08 10:36:04;;;;;;;18.88;2.10;;;10.80;99.90;;;;;;5020844;28;20312;-67
2021/11/08 10:38:32;;;;;;;11.77;2.10;;;10.70;99.90;;;;;;5028023;28;20137;-67
2021/11/08 10:41:02;;;;;;;14.00;1.75;;;10.70;99.90;;;;;;5006073;28;20063;-67
2021/11/08 10:43:30;;;;;;;13.77;2.13;;;10.60;99.90;;;;;;5027056;28;20047;-67
2021/11/08 10:45:59;;;;;;;14.02;2.40;;;10.60;99.90;;;;;;5023541;28;20048;-66
2021/11/08 10:48:31;;;;;;;12.15;1.85;;;10.60;99.90;;;;;;5007398;28;20539;-66
2021/11/08 10:51:01;;;;;;;15.20;2.00;;;10.50;99.90;;;;;;5020671;28;20187;-66
2021/11/08 10:53:30;;;;;;;12.25;1.30;;;10.70;99.90;;;;;;5025173;28;20083;-66
2021/11/08 10:55:59;;;;;;;10.85;1.83;;;10.70;99.90;;;;;;5021421;28;20064;-66
2021/11/08 10:58:25;;;;;;;14.13;1.70;;;10.60;99.90;;;;;;5010045;28;20042;-66
2021/11/08 11:00:56;;;;;;;7.72;1.40;;;10.60;99.90;;;;;;5020019;28;20370;-66
2021/11/08 11:03:23;;;;;;;8.15;1.20;;;10.70;99.90;;;;;;5009712;28;20068;-66
2021/11/08 11:06:00;;;;;;;7.65;1.10;;;10.70;99.90;;;;;;5001255;28;20073;-66
2021/11/08 11:08:26;;;;;;;9.73;1.50;;;10.60;99.90;;;;;;5004145;28;20068;-67
2021/11/08 11:11:02;;;;;;;13.77;1.67;;;10.60;99.90;;;;;;5022246;28;20191;-66
2021/11/08 11:13:29;;;;;;;9.18;1.23;;;10.60;99.90;;;;;;5023076;28;20558;-66
2021/11/08 11:16:03;;;;;;;9.15;1.25;;;10.60;99.90;;;;;;5021691;28;20041;-66
2021/11/08 11:18:36;;;;;;;9.20;1.33;;;10.60;99.90;;;;;;5023211;28;20367;-66
2021/11/08 11:21:19;;;;;;;12.90;1.75;;;10.70;99.90;;;;;;5000964;28;20042;-66
2021/11/08 11:23:50;;;;;;;7.57;1.42;;;10.80;99.90;;;;;;5022592;28;20370;-67
2021/11/08 11:26:18;;;;;;;9.57;1.73;;;10.90;99.90;;;;;;5017240;28;20456;-66
2021/11/08 11:28:48;;;;;;;8.65;1.02;;;10.90;99.90;;;;;;5027376;28;20498;-66
2021/11/08 11:31:24;;;;;;;12.93;2.00;;;10.90;99.90;;;;;;5020680;28;20053;-66
2021/11/08 11:33:54;;;;;;;10.38;1.20;;;10.90;99.90;;;;;;5021687;28;20506;-66
2021/11/08 11:36:22;;;;;;;9.73;1.10;;;10.90;99.90;;;;;;5021889;28;20405;-66
2021/11/08 11:38:55;;;;;;;12.05;1.85;;;11.00;99.90;;;;;;5026768;28;20727;-66
2021/11/08 11:41:25;;;;;;;6.70;1.10;;;11.20;99.90;;;;;;5019496;28;20045;-66
2021/11/08 11:44:00;;;;;;;7.10;0.80;;;11.20;99.90;;;;;;5023168;28;20041;-66
2021/11/08 11:46:29;;;;;;;7.20;0.93;;;11.40;99.90;;;;;;5021001;28;20045;-66
2021/11/08 11:48:57;;;;;;;8.77;0.80;;;11.50;99.90;;;;;;5011140;28;20067;-66
2021/11/08 11:51:28;;;;;;;7.13;1.10;;;11.60;99.90;;;;;;5009952;28;20134;-64
2021/11/08 11:53:55;;;;;;;5.93;1.25;;;11.50;99.90;;;;;;5021310;28;20067;-66
2021/11/08 11:56:24;;;;;;;5.72;0.93;;;11.60;99.90;;;;;;5026750;28;20118;-66
2021/11/08 11:58:51;;;;;;;10.95;1.45;;;11.60;99.90;;;;;;5018727;28;20063;-66
2021/11/08 12:01:19;;;;;;;6.88;1.13;;;11.60;99.90;;;;;;5006235;28;20049;-66
2021/11/08 12:03:47;;;;;;;6.05;1.00;;;11.70;99.90;;;;;;5016032;28;20037;-66
2021/11/08 12:06:16;;;;;;;6.35;0.90;;;11.80;99.90;;;;;;5027298;28;20371;-66
2021/11/08 12:08:43;;;;;;;7.05;1.20;;;11.70;99.90;;;;;;5004289;28;20053;-66
2021/11/08 12:11:09;;;;;;;7.55;1.25;;;11.70;99.90;;;;;;5025542;28;20128;-66
2021/11/08 12:13:42;;;;;;;8.90;1.70;;;11.80;99.90;;;;;;4983836;28;20042;-66
2021/11/08 12:16:18;;;;;;;9.00;1.30;;;11.80;99.90;;;;;;5024637;28;20120;-66
2021/11/08 12:18:46;;;;;;;6.50;0.90;;;11.90;99.90;;;;;;5016866;28;20474;-66
2021/11/08 12:21:28;;;;;;;8.00;1.08;;;12.00;99.90;;;;;;5022034;28;20041;-64
2021/11/08 12:23:56;;;;;;;5.90;1.20;;;11.90;99.90;;;;;;5020187;28;20158;-64
2021/11/08 12:26:32;;;;;;;5.28;0.90;;;11.90;99.90;;;;;;5027165;28;20393;-65
2021/11/08 12:29:10;;;;;;;7.35;0.88;;;11.70;99.90;;;;;;4998947;28;20129;-65
2021/11/08 12:31:37;;;;;;;6.68;1.00;;;11.60;99.90;;;;;;5024068;28;20049;-65
2021/11/08 12:34:08;;;;;;;5.68;0.70;;;11.40;99.90;;;;;;5016795;28;20561;-65
2021/11/08 12:36:35;;;;;;;5.63;1.00;;;11.30;99.90;;;;;;5022926;28;20068;-65
2021/11/08 12:39:09;;;;;;;4.97;0.68;;;11.30;99.90;;;;;;5018390;28;20505;-65
2021/11/08 12:41:48;;;;;;;9.43;1.13;;;11.20;99.90;;;;;;5026235;28;20079;-65
2021/11/08 12:44:17;;;;;;;7.70;1.08;;;11.20;99.90;;;;;;5014969;28;20536;-65
2021/11/08 12:46:50;;;;;;;6.30;0.90;;;11.30;99.90;;;;;;5024761;28;20483;-65
2021/11/08 12:49:17;;;;;;;7.38;1.00;;;11.30;99.90;;;;;;5016739;28;20029;-65
2021/11/08 12:51:55;;;;;;;7.18;0.73;;;11.30;99.90;;;;;;5007644;28;20049;-65
2021/11/08 12:54:22;;;;;;;8.10;0.90;;;11.40;99.90;;;;;;5011510;28;20120;-65
2021/11/08 12:56:48;;;;;;;5.30;0.80;;;11.40;99.90;;;;;;5020903;28;20923;-65
2021/11/08 12:59:26;;;;;;;5.47;0.90;;;11.40;99.90;;;;;;5020143;28;20101;-65
2021/11/08 13:02:11;;;;;;;4.68;0.60;;;11.40;99.90;;;;;;5023613;28;20365;-65
2021/11/08 13:04:48;;;;;;;7.53;1.00;;;11.40;99.90;;;;;;5017961;28;20209;-65
2021/11/08 13:07:16;;;;;;;3.50;0.52;;;11.30;99.90;;;;;;5026393;28;20045;-65
2021/11/08 13:09:56;;;;;;;6.03;0.82;;;11.30;99.90;;;;;;5021423;28;20045;-65
2021/11/08 13:12:36;;;;;;;5.03;0.55;;;11.20;99.90;;;;;;5006384;28;20417;-65
2021/11/08 13:15:13;;;;;;;8.63;0.77;;;11.20;99.90;;;;;;5018349;28;20037;-65
2021/11/08 13:17:54;;;;;;;4.20;0.52;;;11.10;99.90;;;;;;5027734;28;20068;-65
2021/11/08 13:20:27;;;;;;;6.35;0.68;;;11.00;99.90;;;;;;5019053;28;20139;-65
2021/11/08 13:23:07;;;;;;;7.22;0.70;;;11.00;99.90;;;;;;5024851;28;20413;-65
2021/11/08 13:25:39;;;;;;;4.05;0.63;;;10.90;99.90;;;;;;5019150;28;20092;-65
2021/11/08 13:28:07;;;;;;;7.28;0.80;;;11.00;99.90;;;;;;5025728;28;20045;-65
2021/11/08 13:30:41;;;;;;;5.75;0.50;;;10.90;99.90;;;;;;5020552;28;20415;-65
2021/11/08 13:33:09;;;;;;;5.15;0.70;;;10.90;99.90;;;;;;5021779;28;20038;-65
2021/11/08 13:35:36;;;;;;;7.72;0.85;;;10.90;99.90;;;;;;5026301;28;20041;-65
2021/11/08 13:38:16;;;;;;;5.90;0.60;;;10.90;99.90;;;;;;5022605;28;20054;-65
2021/11/08 13:40:55;;;;;;;3.75;0.38;;;10.90;99.90;;;;;;5024399;28;20100;-65
2021/11/08 13:43:26;;;;;;;3.88;0.50;;;10.90;99.90;;;;;;5018638;28;20112;-65
2021/11/08 13:45:57;;;;;;;4.28;0.52;;;10.90;99.90;;;;;;5023839;28;20088;-65
2021/11/08 13:48:27;;;;;;;5.55;0.57;;;10.80;99.90;;;;;;5018825;28;20375;-65
2021/11/08 13:50:55;;;;;;;4.05;0.30;;;10.70;99.90;;;;;;5020854;28;20041;-65
2021/11/08 13:53:37;;;;;;;2.90;0.30;;;10.70;99.90;;;;;;5019377;28;20080;-65
2021/11/08 13:56:06;;;;;;;3.20;0.70;;;10.70;99.90;;;;;;5003004;28;20421;-65
2021/11/08 13:58:32;;;;;;;4.55;0.47;;;10.80;99.90;;;;;;5015440;28;20124;-65
2021/11/08 14:01:08;;;;;;;3.58;0.60;;;10.80;99.90;;;;;;5023734;28;20054;-65
2021/11/08 14:03:42;;;;;;;2.35;0.30;;;10.80;99.90;;;;;;5015595;28;20526;-66
2021/11/08 14:06:09;;;;;;;1.27;0.20;;;10.70;99.90;;;;;;5008505;28;20053;-65
2021/11/08 14:08:44;;;;;;;2.58;0.20;;;10.70;99.90;;;;;;5002788;28;20132;-65
2021/11/08 14:11:10;;;;;;;3.65;0.20;;;10.60;99.90;;;;;;5025434;28;20046;-65
2021/11/08 14:13:38;;;;;;;2.03;0.20;;;10.60;99.90;;;;;;5022873;28;20052;-66
2021/11/08 14:16:12;;;;;;;4.95;0.30;;;10.60;99.90;;;;;;5031539;28;20074;-65
2021/11/08 14:18:38;;;;;;;3.85;0.20;;;10.60;99.90;;;;;;5017599;28;20046;-66
2021/11/08 14:21:13;;;;;;;5.05;0.50;;;10.60;99.90;;;;;;5009508;28;20134;-66
2021/11/08 14:23:43;;;;;;;2.13;0.30;;;10.60;99.90;;;;;;5023348;28;20489;-66
2021/11/08 14:26:19;;;;;;;2.35;0.20;;;10.50;99.90;;;;;;5030886;28;20045;-66
2021/11/08 14:28:46;;;;;;;6.10;0.50;;;10.50;99.90;;;;;;5018337;28;20098;-66
2021/11/08 14:31:21;;;;;;;4.40;0.47;;;10.50;99.90;;;;;;5021405;28;20132;-66
2021/11/08 14:33:47;;;;;;;2.42;0.40;;;10.40;99.90;;;;;;5006063;28;20053;-66
2021/11/08 14:36:18;;;;;;;6.88;0.52;;;10.40;99.90;;;;;;5028584;28;20102;-66
2021/11/08 14:38:48;;;;;;;4.47;0.50;;;10.30;99.90;;;;;;5017100;28;20056;-66
2021/11/08 14:41:14;;;;;;;5.25;0.82;;;10.20;99.90;;;;;;5024652;28;20046;-66